Relevés horaires Cimetta (Suisse)


Relevés horaires à Cimetta - Samedi 15 Sept. 2018
Heure UTC1 Température [°C] Vent [km/h] Hum. [%] Pres.4 [hPa] Visi. [Km] Nébu. [octa] Préc.5 [mm] Cond.
2m. Res. Ros. Dir.2 Vit. Moy. Raf.3
23:00 12.1 12.1 11.6 ESE 3.7 -- -- 97 850 -- -- -- --
22:00 12.5 12.5 12.3 SE 3.7 -- -- 99 850 -- -- -- --
21:00 12.4 12.4 12.1 E 1.9 -- 13.0 98 850(0.9/3h) -- -- -- --
20:00 12.9 12.9 11.3 E 0.0 -- -- 90 850 -- -- -- --
19:00 13.2 13.2 10.7 ESE 1.9 -- -- 85 850 -- -- -- --
18:00 13.1 13.1 10.6 SSO 5.6 -- 18.5 85 850(0.9/3h) -- -- 0/12h
--
17:00 13.2 12.1 12.6 SSO 13.0 -- -- 96 850 -- -- -- --
16:00 14.5 14.4 12.6 SO 7.4 -- -- 88 850 -- -- -- --
15:00 14.1 13.6 13.4 SSO 9.3 -- 18.5 96 850(-0.4/3h) -- -- -- --
14:00 15.7 15.7 13.1 SSO 7.4 -- -- 85 850 -- -- -- --
13:00 16.5 16.5 13.2 SSO 9.3 -- -- 81 850 -- -- -- --
12:00 15.5 15.5 11.2 SSO 7.4 -- 18.5 76 850(0.5/3h) -- -- 0/6h
--
11:00 17.5 17.5 10.0 S 5.6 -- -- 61 850 -- -- -- --
10:00 15.4 15.4 7.9 SSE 7.4 -- -- 61 850 -- -- -- --
09:00 15.0 15.0 10.2 S 5.6 -- 13.0 73 850(1.2/3h) -- -- -- --
08:00 14.9 14.9 4.8 O 3.7 -- -- 51 850 -- -- -- --
07:00 14.0 13.8 5.9 NO 7.4 -- -- 58 850 -- -- -- --
06:00 12.6 12.6 5.4 ONO 3.7 -- 11.1 61 850(0.8/3h) -- -- 0.1/12h
0.1/24h
--
05:00 12.6 12.6 7.8 NO 3.7 -- -- 73 850 -- -- -- --
04:00 12.3 12.3 9.2 NO 3.7 -- -- 81 850 -- -- -- --
03:00 12.4 12.4 10.7 NNE 3.7 -- 9.3 89 850(-0.2/3h) -- -- -- --
02:00 12.4 11.9 11.4 NO 7.4 -- -- 94 850 -- -- -- --
01:00 12.5 12.4 12.0 NO 5.6 -- -- 97 850 -- -- -- --
00:00 12.4 12.4 11.3 ESE 3.7 -- 9.3 93 850(0.3/3h) -- -- 0/6h
--

1 Coordinated Universal Time. Actuellement il est 20:00 locale et 18:00 UTC.

2 Le vent souffle depuis la direction indiquée vers la direction oposée.

3 Les rafales max. sont disponible 40 min après l'heure du relevé.

4 Pour les stations d'altitude (plus de 600m) le géopotentiel du niveau le plus proche de la pression obligatoire est indiqué.

5 Les stations disposant d'un diffuseur peuvent indiquer "trace". Cela signifie que des précipitations ont touchés le sol mais que la quantité est inférieure à 0.1 mm.

Récapitulatif de la journée
Température [°C] Vent [km/h] Ensoleillement4 [h] Precipitations totale5 [mm] Pression [Hpa]
Min1 Max.2 Moy.3 Max. Min Max.
12.0 17.6 0 18.5 9 h 36 min 3.6 850.0 850.0

1 Température minimale relevée entre 18:00 UTC la veille et 18:00 UTC le jour donné.

2 Température maximale relevée entre 06:00 UTC le jour donné et 06:00 UTC le lendemain.

3 Vent moyen de la journée basé sur les relevés horaires.

4 Ensoleillement en heures relevé entre 06:00 UTC la veille et 06:00 UTC le jour donné.

5 Précipitations totales tombées entre 06:00 UTC la jour donné et 06:00 UTC le lendemain.

Graphiques horaires